AirNav   ATP
 
 1620 users online  

C65 Plymouth Municipal Airport
Plymouth, Indiana, USA

GOING TO PLYMOUTH?


FAA INFORMATION EFFECTIVE 14 SEPTEMBER 2017

Location

FAA Identifier: C65
Lat/Long: 41-21-54.4707N / 086-18-00.9268W
41-21.907845N / 086-18.015447W
41.3651307 / -86.3002574
(estimated)
Elevation: 800 ft. / 243.8 m (surveyed)
Variation: 05W (2020)
From city: 2 miles N of PLYMOUTH, IN
Time zone: UTC -4 (UTC -5 during Standard Time)
Zip code: 46563

Airport Operations

Airport use: Open to the public
Activation date: 12/1966
Control tower: no
ARTCC: CHICAGO CENTER
FSS: TERRE HAUTE FLIGHT SERVICE STATION
NOTAMs facility: HUF (NOTAM-D service available)
Attendance: MON-FRI 0800-1700, ALL SAT 0900-1600, ALL SUN 1000-1400
Wind indicator: lighted
Segmented circle: yes
Lights: ACTVT MIRL RY 10/28; REILS RY 10 & 28; PAPI RY 10, VASI RY 28 - CTAF.
Beacon: white-green (lighted land airport)
Operates sunset to sunrise.

Airport Communications

CTAF/UNICOM: 122.8
WX AWOS-3: 133.025 (574-935-3854)
SOUTH BEND APPROACH: 132.05 [1230-0400Z++]
SOUTH BEND DEPARTURE: 132.05 [1230-0400Z++]
WX AWOS-3 at OXI (17 nm W): 135.775 (574-772-2041)
WX AWOS-3 at RCR (19 nm S): 118.775 (574-223-3560)
  • APCH/DEP SERVICE PROVIDED BY CHICAGO ARTCC ON FREQS 135.9/317.6 (GOSHEN RCAG) WHEN SOUTH BEND APCH CTL CLSD.

Nearby radio navigation aids

VOR radial/distance  VOR name  Freq  Var
GSHr232/15.6GOSHEN VORTAC113.7000E
OXIr081/15.9KNOX VOR/DME115.6000E
GIJr178/24.2GIPPER VORTAC115.4000E
OLKr284/(36.9)WEBSTER LAKE VOR110.4003W

 
NDB name  Hdg/Dist  Freq  Var  ID
LA PORTE114/22.735603WIUL .. ..- .-..

Airport Services

Fuel available: 100LL JET-A
SELF SERVE AVBL 24 HRS.
Parking: hangars and tiedowns
Airframe service: NONE
Powerplant service: NONE

Runway Information

Runway 10/28

Dimensions: 4400 x 75 ft. / 1341 x 23 m
Surface: asphalt, in good condition
Weight bearing capacity: 
Single wheel: 25.0
Double wheel: 40.0
Runway edge lights: medium intensity
RUNWAY 10  RUNWAY 28
Latitude: 41-21.944167N41-21.871522N
Longitude: 086-18.493913W086-17.536978W
Elevation: 796.0 ft.800.0 ft.
Gradient: 0.2%0.2%
Traffic pattern: leftleft
Runway heading: 101 magnetic, 096 true281 magnetic, 276 true
Displaced threshold: no300 ft.
Markings: nonprecision, in good conditionnonprecision, in good condition
Visual slope indicator: 2-light PAPI on left (3.00 degrees glide path)4-box VASI on left (3.30 degrees glide path)
Runway end identifier lights: yesyes
Touchdown point: yes, no lightsyes, no lights
Obstructions: 56 ft. tree, 2000 ft. from runway, 183 ft. both sides of centerline, 32:1 slope to clear22 ft. road, 450 ft. from runway, 300 ft. right of centerline, 11:1 slope to clear
APCH RATIO 34:1 AT DSPLCD THLD.

Airport Ownership and Management from official FAA records

Ownership: Publicly-owned
Owner: PLYMOUTH BOAC
301 AIRPORT DRIVE
PLYMOUTH, IN 46563
Phone 574-935-5152
PHIL BOCKMAN - BOARD PRESIDENT
Manager: DAVE LATTIMER
301 AIRPORT DRIVE
PLYMOUTH, IN 46563
Phone 574-935-5152

Airport Operational Statistics

Aircraft based on the field: 18
Single engine airplanes: 16
Multi engine airplanes: 1
Helicopters: 1
    
Aircraft operations: avg 23/day *
54% local general aviation
26% transient general aviation
20% air taxi
* for 12-month period ending 31 December 2015

Additional Remarks

BIRDS ON & INVOF ARPT.
SNOW REMOVAL OPS DURING WINTER MONTHS; EQUIP OPERATORS WILL MONITOR CTAF WHEN TWR IS CLSD.

Instrument Procedures

NOTE: All procedures below are presented as PDF files. If you need a reader for these files, you should download the free Adobe Reader.

NOT FOR NAVIGATION. Please procure official charts for flight.
FAA instrument procedures published for use between 14 September 2017 at 0901Z and 12 October 2017 at 0900Z.

 
IAPs - Instrument Approach Procedures
RNAV (GPS) RWY 10   download (227KB)
RNAV (GPS) RWY 28   download (237KB)
VOR RWY 10   download (188KB)
VOR RWY 28   download (227KB)
NOTE: Special Take-Off Minimums/Departure Procedures apply   download (164KB)

Other nearby airports with instrument procedures:

KOXI - Starke County Airport (17 nm W)
C03 - Nappanee Municipal Airport (17 nm E)
KRCR - Fulton County Airport (19 nm S)
KSBN - South Bend International Airport (21 nm N)
KASW - Warsaw Municipal Airport (21 nm E)
 
Loc | Ops | Rwys | IFR | FBO | Links
Com | Nav | Svcs | Stats | Notes


 
Area around C65 (Plymouth Municipal Airport)
 
Road maps at: MapQuest Bing Google
 
Aerial photo
WARNING: Photo may not be current or correct
Aerial photo of C65 (Plymouth Municipal Airport)
Do you have a better or more recent aerial photo of Plymouth Municipal Airport that you would like to share? If so, please send us your photo.

 
Sectional chart

 
Airport distance calculator
Flying to Plymouth Municipal Airport? Find the distance to fly.

From to C65

Sunrise and sunset
Times for 19-Sep-2017
 Local
(UTC-4)
 Zulu
(UTC)
Morning civil twilight07:0311:03
Sunrise07:3111:31
Sunset19:4723:47
Evening civil twilight20:1500:15

Current date and time
Zulu (UTC)  19-Sep-2017 19:05:00
Local (UTC-4)  19-Sep-2017 15:05:00
 
METAR
KOXI 
17nm W 
191855Z AUTO 17003KT 10SM OVC019 22/18 A2993 RMK AO1
KRCR 
19nm S 
191814Z AUTO 23008KT 10SM BKN020 OVC030 25/19 A2995 RMK AO2
KSBN 
20nm N 
191854Z 02006KT 10SM BKN007 BKN011 BKN035 22/20 A2994 RMK AO2 SLP135 T02170200
KASW 
21nm E 
191855Z AUTO 00000KT 10SM SCT024 BKN034 OVC060 23/18 A2992 RMK AO2
KPPO 
23nm NW 
191855Z AUTO 06005KT 10SM OVC036 22/19 A2994 RMK AO2 T02190185
KEKM 
25nm NE 
191752Z 04005KT 7SM OVC014 22/18 A2996 RMK AO2
KGSH 
25nm NE 
191853Z AUTO 03004KT 10SM SCT013 BKN020 OVC050 23/19 A2993 RMK AO2 SLP131 T02280189
KMGC 
31nm NW 
191855Z AUTO 07003KT 10SM BKN025 BKN029 OVC039 21/19 A2994 RMK AO2
KVPZ 
32nm W 
191856Z AUTO 05003KT 10SM FEW022 OVC039 24/19 A2993 RMK AO2 SLP131 T02440194 TSNO
TAF
KSBN 
20nm N 
191739Z 1918/2018 10006KT P6SM OVC035 TEMPO 1918/1920 4SM -SHRA BR BKN025 FM192000 09005KT P6SM OVC025 FM200600 00000KT 1SM BR BKN004 TEMPO 2008/2012 1/2SM FG VV002 FM201400 18006KT P6SM SCT025
NOTAMs
Click for the latest NOTAMs
NOTAMs are issued by the DoD/FAA and will open in a separate window not controlled by AirNav.

 

 
 

FBO, Fuel Providers, and Aircraft Ground Support

  
 Business Name 
 
 Contact 
 
 Services / Description 
 
Fuel Prices
 
Comments
  
 City of Plymouth (FBO)
UNICOM 122.80
574-935-5152
[web site]
[email]
Our job is serving you!
 
Phillips 66 Aviation Performance Center   WingPoints™ Rewards   Courtesy car   Enterprise Rent-A-Car  
 
More info about City of Plymouth (FBO)
Phillips 66
100LL Jet A
AS $4.20 $3.49 
 Updated 07-Sep-2017
 
   4 read write
AS=Assisted/Self Service
Update Fuel Prices
 

Would you like to see your business listed on this page?

 If your business provides an interesting product or service to pilots, flight crews, aircraft, or users of the Plymouth Municipal Airport, you should consider listing it here.  To start the listing process, click on the button below
 
Add a business
 

Other Pages about Plymouth Municipal Airport

www.plymouthin.com/...
Page from the Michigan Airport Directory (PDF)
 
Update a link
 
Copyright © AirNav, LLC. All rights reserved. Privacy Policy  Contact